Time;durP1;ratioP1;P1;durP2;ratioP2;P2;SDS_P1;SDS_P2;PMS_P1;PMS_P2;Temp;Humidity;BMP_temperature;BMP_pressure;BME280_temperature;BME280_humidity;BME280_pressure;Samples;Min_cycle;Max_cycle;Signal;HPM_P1;HPM_P2
2022/03/06 00:01:39;;;;;;;;;;;8.30;86.30;;;;;;4316881;33;42076;-86
2022/03/06 00:04:06;;;;;;;;;;;8.30;86.10;;;;;;4316644;33;43053;-86
2022/03/06 00:06:33;;;;;;;;;;;8.30;86.30;;;;;;4316046;33;43018;-86
2022/03/06 00:09:00;;;;;;;;;;;8.30;85.60;;;;;;4316919;33;45683;-86
2022/03/06 00:11:27;;;;;;;;;;;8.30;86.40;;;;;;4316109;33;43866;-86
2022/03/06 00:13:54;;;;;;;;;;;8.30;86.00;;;;;;4317614;33;43086;-86
2022/03/06 00:16:21;;;;;;;;;;;8.20;85.60;;;;;;4316219;33;43196;-86
2022/03/06 00:18:48;;;;;;;;;;;8.20;86.00;;;;;;4317177;33;44212;-86
2022/03/06 00:21:15;;;;;;;;;;;8.20;86.20;;;;;;4317268;33;43028;-86
2022/03/06 00:23:42;;;;;;;;;;;8.20;85.30;;;;;;4315843;33;43813;-86
2022/03/06 00:26:09;;;;;;;;;;;8.10;84.40;;;;;;4315895;33;43754;-86
2022/03/06 00:28:37;;;;;;;;;;;8.10;85.90;;;;;;4315771;33;43994;-86
2022/03/06 00:31:10;;;;;;;;;;;8.10;86.20;;;;;;4316155;33;43681;-86
2022/03/06 00:33:37;;;;;;;;;;;8.10;85.90;;;;;;4316651;33;43217;-82
2022/03/06 00:36:04;;;;;;;;;;;8.00;86.00;;;;;;4316914;33;43894;-86
2022/03/06 00:38:32;;;;;;;;;;;8.00;86.50;;;;;;4316657;33;42614;-86
2022/03/06 00:40:59;;;;;;;;;;;8.00;86.10;;;;;;4316646;33;44236;-86
2022/03/06 00:43:26;;;;;;;;;;;8.00;85.80;;;;;;4316048;33;43568;-86
2022/03/06 00:45:53;;;;;;;;;;;8.00;86.10;;;;;;4316706;33;42846;-85
2022/03/06 00:48:20;;;;;;;;;;;8.00;86.20;;;;;;4316048;33;43024;-86
2022/03/06 00:50:48;;;;;;;;;;;8.00;86.70;;;;;;4316654;33;43710;-87
2022/03/06 00:53:15;;;;;;;;;;;8.00;86.30;;;;;;4316253;33;44175;-87
2022/03/06 00:55:42;;;;;;;;;;;7.90;86.20;;;;;;4315439;33;45411;-86
2022/03/06 00:58:09;;;;;;;;;;;7.90;86.30;;;;;;4316377;33;42950;-87
2022/03/06 01:00:37;;;;;;;;;;;7.90;86.50;;;;;;4316220;33;44033;-86
2022/03/06 01:03:06;;;;;;;;;;;7.90;86.00;;;;;;4316312;33;41969;-86
2022/03/06 01:05:34;;;;;;;;;;;7.80;86.50;;;;;;4316702;33;43913;-86
2022/03/06 01:08:01;;;;;;;;;;;7.80;86.10;;;;;;4315343;33;43664;-85
2022/03/06 01:10:28;;;;;;;;;;;7.80;86.40;;;;;;4315297;33;43711;-86
2022/03/06 01:12:56;;;;;;;;;;;7.80;86.60;;;;;;4316465;33;43675;-87
2022/03/06 01:15:23;;;;;;;;;;;7.80;86.40;;;;;;4316457;33;43373;-86
2022/03/06 01:17:53;;;;;;;;;;;7.80;84.80;;;;;;4316027;33;44195;-86
2022/03/06 01:20:22;;;;;;;;;;;7.70;83.70;;;;;;4316182;33;43052;-86
2022/03/06 01:22:49;;;;;;;;;;;7.60;83.00;;;;;;4316299;33;43717;-86
2022/03/06 01:25:17;;;;;;;;;;;7.40;82.90;;;;;;4316229;33;43259;-86
2022/03/06 01:27:44;;;;;;;;;;;7.40;84.40;;;;;;4315323;33;42582;-86
2022/03/06 01:30:12;;;;;;;;;;;7.40;84.20;;;;;;4315881;33;43296;-86
2022/03/06 01:32:39;;;;;;;;;;;7.40;85.70;;;;;;4316299;33;43370;-85
2022/03/06 01:35:07;;;;;;;;;;;7.50;86.50;;;;;;4315287;33;43745;-86
2022/03/06 01:37:34;;;;;;;;;;;7.50;87.20;;;;;;4315063;33;41862;-86
2022/03/06 01:40:02;;;;;;;;;;;7.50;86.70;;;;;;4314785;33;42516;-86
2022/03/06 01:42:29;;;;;;;;;;;7.50;86.60;;;;;;4315794;33;44239;-87
2022/03/06 01:44:57;;;;;;;;;;;7.50;86.80;;;;;;4316307;33;43343;-87
2022/03/06 01:47:33;;;;;;;;;;;7.50;86.50;;;;;;4315833;33;43710;-86
2022/03/06 01:50:00;;;;;;;;;;;7.50;86.90;;;;;;4316120;33;43116;-86
2022/03/06 01:52:30;;;;;;;;;;;7.50;86.90;;;;;;4316174;33;42959;-86
2022/03/06 01:54:57;;;;;;;;;;;7.50;87.10;;;;;;4314938;33;43649;-86
2022/03/06 01:57:25;;;;;;;;;;;7.50;86.70;;;;;;4315742;33;42913;-86
2022/03/06 01:59:52;;;;;;;;;;;7.40;86.20;;;;;;4314995;33;43726;-85
2022/03/06 02:02:19;;;;;;;;;;;7.40;86.40;;;;;;4315584;33;43096;-86
2022/03/06 02:04:46;;;;;;;;;;;7.30;84.10;;;;;;4315614;33;43725;-86
2022/03/06 02:07:13;;;;;;;;;;;7.30;85.90;;;;;;4315580;33;42775;-87
2022/03/06 02:09:40;;;;;;;;;;;7.30;86.90;;;;;;4315807;33;42679;-86
2022/03/06 02:12:23;;;;;;;;;;;7.30;87.00;;;;;;4316062;33;43528;-87
2022/03/06 02:14:51;;;;;;;;;;;7.30;86.80;;;;;;4315686;33;42525;-86
2022/03/06 02:17:21;;;;;;;;;;;7.30;86.90;;;;;;4315526;33;42315;-86
2022/03/06 02:19:51;;;;;;;;;;;7.20;87.20;;;;;;4315529;33;42878;-87
2022/03/06 02:22:19;;;;;;;;;;;7.20;87.40;;;;;;4315518;33;43117;-86
2022/03/06 02:24:46;;;;;;;;;;;7.20;87.20;;;;;;4314514;33;43620;-86
2022/03/06 02:27:13;;;;;;;;;;;7.10;86.50;;;;;;4315889;33;43793;-86
2022/03/06 02:29:41;;;;;;;;;;;7.10;87.10;;;;;;4315046;33;44203;-86
2022/03/06 02:32:08;;;;;;;;;;;7.10;87.30;;;;;;4315440;33;43015;-86
2022/03/06 02:34:39;;;;;;;;;;;7.10;87.30;;;;;;4314907;33;43244;-87
2022/03/06 02:37:07;;;;;;;;;;;7.10;87.40;;;;;;4315769;33;43561;-86
2022/03/06 02:39:34;;;;;;;;;;;7.10;87.30;;;;;;4326818;33;43959;-87
2022/03/06 02:42:02;;;;;;;;;;;7.10;87.50;;;;;;4315315;33;43269;-87
2022/03/06 02:44:29;;;;;;;;;;;7.10;87.40;;;;;;4315311;33;43979;-87
2022/03/06 02:46:56;;;;;;;;;;;7.00;87.00;;;;;;4316039;33;43755;-87
2022/03/06 02:49:23;;;;;;;;;;;7.00;87.10;;;;;;4315516;33;43931;-86
2022/03/06 02:51:51;;;;;;;;;;;7.00;86.10;;;;;;4314691;33;44153;-86
2022/03/06 02:54:18;;;;;;;;;;;7.00;86.30;;;;;;4315823;33;43091;-87
2022/03/06 02:56:45;;;;;;;;;;;7.00;86.60;;;;;;4315834;33;44185;-87
2022/03/06 02:59:12;;;;;;;;;;;7.00;86.70;;;;;;4315526;33;42937;-87
2022/03/06 03:01:41;;;;;;;;;;;7.00;87.10;;;;;;4326172;33;42896;-87
2022/03/06 03:04:08;;;;;;;;;;;7.00;86.60;;;;;;4314549;33;44135;-86
2022/03/06 03:06:36;;;;;;;;;;;6.90;85.90;;;;;;4315670;33;43855;-86
2022/03/06 03:09:04;;;;;;;;;;;6.90;87.00;;;;;;4315288;33;43923;-87
2022/03/06 03:11:32;;;;;;;;;;;6.90;86.90;;;;;;4314294;33;43081;-86
2022/03/06 03:14:00;;;;;;;;;;;6.90;87.30;;;;;;4314796;33;43263;-86
2022/03/06 03:16:27;;;;;;;;;;;6.90;87.20;;;;;;4317277;33;44180;-86
2022/03/06 03:18:54;;;;;;;;;;;6.90;87.30;;;;;;4316864;33;43758;-86
2022/03/06 03:21:21;;;;;;;;;;;6.90;86.70;;;;;;4316933;33;44929;-86
2022/03/06 03:23:48;;;;;;;;;;;6.80;86.90;;;;;;4317788;33;42857;-86
2022/03/06 03:26:15;;;;;;;;;;;6.80;87.20;;;;;;4316810;33;43730;-86
2022/03/06 03:28:42;;;;;;;;;;;6.80;87.30;;;;;;4316714;33;43193;-86
2022/03/06 03:31:09;;;;;;;;;;;6.80;87.40;;;;;;4318182;33;43041;-86
2022/03/06 03:33:36;;;;;;;;;;;6.80;87.60;;;;;;4316640;33;43103;-86
2022/03/06 03:36:04;;;;;;;;;;;6.70;87.00;;;;;;4317938;33;43231;-86
2022/03/06 03:38:31;;;;;;;;;;;6.70;86.80;;;;;;4317587;33;43234;-86
2022/03/06 03:41:03;;;;;;;;;;;6.70;87.20;;;;;;4318216;33;43732;-86
2022/03/06 03:43:30;;;;;;;;;;;6.70;87.00;;;;;;4318037;33;43359;-86
2022/03/06 03:46:00;;;;;;;;;;;6.70;87.20;;;;;;4316750;33;43706;-87
2022/03/06 03:48:28;;;;;;;;;;;6.60;87.00;;;;;;4317698;33;43449;-86
2022/03/06 03:50:55;;;;;;;;;;;6.70;87.60;;;;;;4316751;33;43020;-86
2022/03/06 03:53:23;;;;;;;;;;;6.60;87.90;;;;;;4316773;33;43504;-86
2022/03/06 03:55:51;;;;;;;;;;;6.60;87.70;;;;;;4317649;33;43710;-86
2022/03/06 03:58:18;;;;;;;;;;;6.60;87.80;;;;;;4317248;33;44286;-86
2022/03/06 04:00:45;;;;;;;;;;;6.60;88.20;;;;;;4316635;33;43710;-86
2022/03/06 04:03:13;;;;;;;;;;;6.60;89.10;;;;;;4327985;33;42954;-86
2022/03/06 04:05:40;;;;;;;;;;;6.50;87.90;;;;;;4317233;33;42732;-86
2022/03/06 04:08:07;;;;;;;;;;;6.60;88.20;;;;;;4317367;33;43727;-87
2022/03/06 04:10:34;;;;;;;;;;;6.60;88.00;;;;;;4317077;33;42938;-86
2022/03/06 04:13:02;;;;;;;;;;;6.50;88.40;;;;;;4328432;33;43000;-86
2022/03/06 04:15:29;;;;;;;;;;;6.50;88.30;;;;;;4316552;33;43229;-86
2022/03/06 04:17:56;;;;;;;;;;;6.50;88.30;;;;;;4317397;33;44083;-86
2022/03/06 04:20:23;;;;;;;;;;;6.50;88.50;;;;;;4315857;33;43930;-86
2022/03/06 04:22:50;;;;;;;;;;;6.50;88.30;;;;;;4316866;33;43695;-86
2022/03/06 04:25:17;;;;;;;;;;;6.50;88.20;;;;;;4316391;33;43757;-86
2022/03/06 04:27:44;;;;;;;;;;;6.40;88.10;;;;;;4316732;33;43706;-86
2022/03/06 04:30:11;;;;;;;;;;;6.40;88.60;;;;;;4316923;33;43710;-86
2022/03/06 04:32:38;;;;;;;;;;;6.40;88.20;;;;;;4317296;33;42740;-86
2022/03/06 04:35:06;;;;;;;;;;;6.30;87.20;;;;;;4316304;33;43872;-86
2022/03/06 04:37:33;;;;;;;;;;;6.30;88.50;;;;;;4316857;33;43684;-86
2022/03/06 04:40:01;;;;;;;;;;;6.30;88.90;;;;;;4316796;33;43809;-87
2022/03/06 04:42:28;;;;;;;;;;;6.30;88.70;;;;;;4316942;33;43030;-86
2022/03/06 04:44:55;;;;;;;;;;;6.20;88.90;;;;;;4317096;33;42340;-86
2022/03/06 04:47:22;;;;;;;;;;;6.30;89.00;;;;;;4315581;33;43217;-86
2022/03/06 04:49:49;;;;;;;;;;;6.20;88.90;;;;;;4315486;33;43359;-87
2022/03/06 04:52:16;;;;;;;;;;;6.20;88.50;;;;;;4317149;33;43955;-86
2022/03/06 04:54:43;;;;;;;;;;;6.20;89.10;;;;;;4316606;33;43101;-87
2022/03/06 04:57:10;;;;;;;;;;;6.20;88.90;;;;;;4315471;33;43915;-87
2022/03/06 04:59:37;;;;;;;;;;;6.20;89.00;;;;;;4316889;33;43478;-86
2022/03/06 05:02:04;;;;;;;;;;;6.20;89.00;;;;;;4316618;33;43911;-87
2022/03/06 05:04:32;;;;;;;;;;;6.20;89.30;;;;;;4316684;33;42429;-87
2022/03/06 05:06:59;;;;;;;;;;;6.20;88.90;;;;;;4315711;33;42981;-87
2022/03/06 05:09:26;;;;;;;;;;;6.20;88.70;;;;;;4316756;33;43878;-87
2022/03/06 05:11:53;;;;;;;;;;;6.10;88.60;;;;;;4315224;33;42480;-87
2022/03/06 05:14:20;;;;;;;;;;;6.10;89.00;;;;;;4316692;33;43350;-87
2022/03/06 05:16:47;;;;;;;;;;;6.10;89.20;;;;;;4316464;33;43187;-87
2022/03/06 05:19:14;;;;;;;;;;;6.10;89.20;;;;;;4316516;33;43579;-87
2022/03/06 05:21:41;;;;;;;;;;;6.10;89.30;;;;;;4316538;33;44912;-87
2022/03/06 05:24:08;;;;;;;;;;;6.10;89.10;;;;;;4315346;33;43290;-87
2022/03/06 05:26:35;;;;;;;;;;;6.10;89.30;;;;;;4314988;33;43644;-87
2022/03/06 05:29:03;;;;;;;;;;;6.00;89.10;;;;;;4316086;33;42971;-87
2022/03/06 05:31:30;;;;;;;;;;;6.00;89.60;;;;;;4316186;33;42658;-87
2022/03/06 05:33:57;;;;;;;;;;;6.00;89.40;;;;;;4316055;33;42501;-87
2022/03/06 05:36:24;;;;;;;;;;;6.00;88.40;;;;;;4316003;33;43205;-86
2022/03/06 05:38:51;;;;;;;;;;;5.90;88.50;;;;;;4315835;33;44187;-86
2022/03/06 05:41:18;;;;;;;;;;;5.90;89.30;;;;;;4315359;33;43191;-85
2022/03/06 05:43:47;;;;;;;;;;;5.90;89.70;;;;;;4316257;33;43554;-87
2022/03/06 05:46:14;;;;;;;;;;;5.90;89.30;;;;;;4314856;33;44285;-86
2022/03/06 05:48:41;;;;;;;;;;;5.90;88.80;;;;;;4327179;33;43708;-87
2022/03/06 05:51:09;;;;;;;;;;;5.80;89.40;;;;;;4316117;33;44217;-87
2022/03/06 05:53:36;;;;;;;;;;;5.90;90.00;;;;;;4315726;33;43062;-86
2022/03/06 05:56:03;;;;;;;;;;;5.90;89.80;;;;;;4316206;33;43092;-86
2022/03/06 05:58:30;;;;;;;;;;;5.90;90.10;;;;;;4327309;33;43710;-87
2022/03/06 06:00:57;;;;;;;;;;;5.80;90.10;;;;;;4314652;33;42473;-86
2022/03/06 06:03:25;;;;;;;;;;;5.90;89.60;;;;;;4315582;33;42985;-86
2022/03/06 06:05:52;;;;;;;;;;;5.80;88.60;;;;;;4316213;33;44235;-86
2022/03/06 06:08:22;;;;;;;;;;;5.80;90.00;;;;;;4315623;33;44655;-87
2022/03/06 06:10:49;;;;;;;;;;;5.80;90.20;;;;;;4316057;33;43698;-87
2022/03/06 06:13:19;;;;;;;;;;;5.80;90.20;;;;;;4316137;33;43853;-86
2022/03/06 06:15:46;;;;;;;;;;;5.90;90.10;;;;;;4315891;33;43014;-87
2022/03/06 06:18:14;;;;;;;;;;;5.80;90.10;;;;;;4315482;33;44185;-87
2022/03/06 06:20:50;;;;;;;;;;;5.80;90.10;;;;;;4315620;33;42847;-87
2022/03/06 06:23:23;;;;;;;;;;;5.90;90.00;;;;;;4316914;33;43671;-87
2022/03/06 06:25:50;;;;;;;;;;;5.90;90.00;;;;;;4315955;33;42816;-87
2022/03/06 06:28:17;;;;;;;;;;;5.80;90.00;;;;;;4315683;33;43584;-86
2022/03/06 06:30:44;;;;;;;;;;;5.80;89.80;;;;;;4315964;33;42083;-86
2022/03/06 06:33:11;;;;;;;;;;;5.80;90.00;;;;;;4315663;33;43651;-87
2022/03/06 06:35:38;;;;;;;;;;;5.80;90.20;;;;;;4315822;33;42869;-86
2022/03/06 06:38:06;;;;;;;;;;;5.80;90.20;;;;;;4314493;33;43915;-87
2022/03/06 06:40:33;;;;;;;;;;;5.80;90.20;;;;;;4326511;33;44195;-87
2022/03/06 06:43:00;;;;;;;;;;;5.70;90.10;;;;;;4315302;33;42012;-86
2022/03/06 06:45:27;;;;;;;;;;;5.70;90.20;;;;;;4314560;33;42094;-86
2022/03/06 06:47:54;;;;;;;;;;;5.70;90.20;;;;;;4315698;33;42878;-87
2022/03/06 06:50:21;;;;;;;;;;;5.70;90.10;;;;;;4316127;33;43642;-86
2022/03/06 06:52:48;;;;;;;;;;;5.70;90.20;;;;;;4318361;33;43668;-86
2022/03/06 06:55:15;;;;;;;;;;;5.70;90.20;;;;;;4318568;33;42094;-86
2022/03/06 06:57:42;;;;;;;;;;;5.70;90.20;;;;;;4318351;33;42284;-87
2022/03/06 07:00:09;;;;;;;;;;;5.60;90.30;;;;;;4318036;33;43114;-87
2022/03/06 07:02:36;;;;;;;;;;;5.60;90.50;;;;;;4317792;33;44017;-86
2022/03/06 07:05:04;;;;;;;;;;;5.60;90.50;;;;;;4318406;33;43368;-86
2022/03/06 07:07:31;;;;;;;;;;;5.60;90.60;;;;;;4318066;33;44343;-87
2022/03/06 07:09:58;;;;;;;;;;;5.50;90.80;;;;;;4317018;33;43667;-87
2022/03/06 07:12:25;;;;;;;;;;;5.40;91.10;;;;;;4318351;33;44911;-87
2022/03/06 07:14:52;;;;;;;;;;;5.40;91.20;;;;;;4317267;33;44739;-87
2022/03/06 07:17:19;;;;;;;;;;;5.40;91.30;;;;;;4318107;33;43784;-86
2022/03/06 07:19:46;;;;;;;;;;;5.30;91.50;;;;;;4329000;33;42913;-86
2022/03/06 07:22:15;;;;;;;;;;;5.30;91.60;;;;;;4317913;33;42947;-87
2022/03/06 07:24:42;;;;;;;;;;;5.30;91.80;;;;;;4317855;33;43049;-87
2022/03/06 07:27:09;;;;;;;;;;;5.30;91.80;;;;;;4317833;33;43197;-86
2022/03/06 07:29:36;;;;;;;;;;;5.30;91.80;;;;;;4317648;33;43503;-86
2022/03/06 07:32:03;;;;;;;;;;;5.30;92.10;;;;;;4317642;33;43737;-86
2022/03/06 07:34:30;;;;;;;;;;;5.30;92.10;;;;;;4318085;33;42112;-87
2022/03/06 07:36:57;;;;;;;;;;;5.20;92.40;;;;;;4317739;33;43671;-87
2022/03/06 07:39:24;;;;;;;;;;;5.30;92.30;;;;;;4317851;33;42171;-87
2022/03/06 07:41:51;;;;;;;;;;;5.30;92.40;;;;;;4316865;33;43057;-86
2022/03/06 07:44:18;;;;;;;;;;;5.30;92.40;;;;;;4316815;33;42836;-87
2022/03/06 07:46:45;;;;;;;;;;;5.30;92.30;;;;;;4317348;33;43326;-86
2022/03/06 07:49:12;;;;;;;;;;;5.30;92.70;;;;;;4317451;33;43496;-86
2022/03/06 07:51:40;;;;;;;;;;;5.30;92.70;;;;;;4316363;33;44339;-86
2022/03/06 07:54:13;;;;;;;;;;;5.30;92.80;;;;;;4317511;33;42499;-86
2022/03/06 07:56:41;;;;;;;;;;;5.20;92.90;;;;;;4317566;33;43929;-86
2022/03/06 07:59:08;;;;;;;;;;;5.20;92.90;;;;;;4316603;33;42607;-86
2022/03/06 08:01:35;;;;;;;;;;;5.20;93.00;;;;;;4316632;33;41988;-86
2022/03/06 08:04:03;;;;;;;;;;;5.30;93.10;;;;;;4317014;33;42562;-86
2022/03/06 08:06:30;;;;;;;;;;;5.30;93.20;;;;;;4317515;33;43477;-86
2022/03/06 08:08:57;;;;;;;;;;;5.30;93.30;;;;;;4317339;33;43480;-86
2022/03/06 08:11:24;;;;;;;;;;;5.30;93.20;;;;;;4315990;33;43287;-86
2022/03/06 08:13:51;;;;;;;;;;;5.30;93.10;;;;;;4316084;33;43305;-87
2022/03/06 08:16:19;;;;;;;;;;;5.30;93.70;;;;;;4317400;33;42940;-86
2022/03/06 08:18:46;;;;;;;;;;;5.30;93.40;;;;;;4316949;33;44327;-86
2022/03/06 08:21:13;;;;;;;;;;;5.20;93.40;;;;;;4315876;33;42469;-86
2022/03/06 08:23:40;;;;;;;;;;;5.20;93.60;;;;;;4315737;33;42504;-86
2022/03/06 08:26:07;;;;;;;;;;;5.20;93.60;;;;;;4316187;33;44160;-86
2022/03/06 08:28:34;;;;;;;;;;;5.20;93.80;;;;;;4328274;33;44227;-86
2022/03/06 08:31:02;;;;;;;;;;;5.20;93.80;;;;;;4316279;33;43064;-85
2022/03/06 08:33:30;;;;;;;;;;;5.20;93.80;;;;;;4315818;33;44265;-86
2022/03/06 08:35:57;;;;;;;;;;;5.30;93.90;;;;;;4316776;33;43270;-86
2022/03/06 08:38:24;;;;;;;;;;;5.30;94.00;;;;;;4316002;33;43065;-86
2022/03/06 08:40:51;;;;;;;;;;;5.30;94.00;;;;;;4317121;33;43194;-86
2022/03/06 08:43:18;;;;;;;;;;;5.30;93.90;;;;;;4316950;33;42115;-86
2022/03/06 08:45:45;;;;;;;;;;;5.30;94.00;;;;;;4316688;33;42843;-86
2022/03/06 08:48:13;;;;;;;;;;;5.30;93.90;;;;;;4327884;33;42010;-86
2022/03/06 08:50:40;;;;;;;;;;;5.30;93.90;;;;;;4315519;33;42454;-85
2022/03/06 08:53:07;;;;;;;;;;;5.30;94.10;;;;;;4316025;33;43911;-85
2022/03/06 08:55:34;;;;;;;;;;;5.30;94.10;;;;;;4315814;33;44228;-85
2022/03/06 08:58:01;;;;;;;;;;;5.20;94.00;;;;;;4316375;33;43118;-85
2022/03/06 09:00:28;;;;;;;;;;;5.30;94.20;;;;;;4327589;33;43382;-85
2022/03/06 09:02:55;;;;;;;;;;;5.30;94.10;;;;;;4314880;33;43714;-85
2022/03/06 09:05:24;;;;;;;;;;;5.30;94.30;;;;;;4315354;33;42763;-81
2022/03/06 09:07:51;;;;;;;;;;;5.30;94.30;;;;;;4316781;33;43960;-88
2022/03/06 09:10:18;;;;;;;;;;;5.30;94.30;;;;;;4316705;33;43033;-85
2022/03/06 09:12:45;;;;;;;;;;;5.30;94.40;;;;;;4316583;33;42829;-84
2022/03/06 09:15:12;;;;;;;;;;;5.30;94.20;;;;;;4315963;33;42946;-84
2022/03/06 09:17:39;;;;;;;;;;;5.30;94.30;;;;;;4315116;33;43489;-84
2022/03/06 09:20:07;;;;;;;;;;;5.30;94.50;;;;;;4316188;33;43051;-84
2022/03/06 09:22:34;;;;;;;;;;;5.30;94.30;;;;;;4316099;33;43715;-84
2022/03/06 09:25:01;;;;;;;;;;;5.30;94.60;;;;;;4315903;33;42425;-84
2022/03/06 09:27:28;;;;;;;;;;;5.40;94.50;;;;;;4316469;33;43011;-84
2022/03/06 09:29:55;;;;;;;;;;;5.30;94.20;;;;;;4327145;33;44074;-84
2022/03/06 09:32:22;;;;;;;;;;;5.40;94.40;;;;;;4316119;33;44051;-83
2022/03/06 09:34:49;;;;;;;;;;;5.40;94.30;;;;;;4315840;33;43133;-83
2022/03/06 09:37:16;;;;;;;;;;;5.50;94.20;;;;;;4316282;33;42037;-84
2022/03/06 09:39:43;;;;;;;;;;;5.50;94.40;;;;;;4316214;33;43646;-84
2022/03/06 09:42:10;;;;;;;;;;;5.50;94.20;;;;;;4316109;33;42367;-83
2022/03/06 09:44:39;;;;;;;;;;;5.50;94.10;;;;;;4316265;33;43727;-83
2022/03/06 09:47:06;;;;;;;;;;;5.60;94.10;;;;;;4314721;33;43158;-84
2022/03/06 09:49:33;;;;;;;;;;;5.60;94.00;;;;;;4315786;33;43806;-83
2022/03/06 09:52:01;;;;;;;;;;;5.60;94.10;;;;;;4315716;33;42631;-84
2022/03/06 09:54:29;;;;;;;;;;;5.60;94.20;;;;;;4316098;33;43070;-83
2022/03/06 09:56:57;;;;;;;;;;;5.60;94.00;;;;;;4315813;33;43184;-83
2022/03/06 09:59:24;;;;;;;;;;;5.60;94.10;;;;;;4315656;33;44182;-83
2022/03/06 10:01:51;;;;;;;;;;;5.70;94.10;;;;;;4315007;33;43158;-83
2022/03/06 10:04:24;;;;;;;;;;;5.70;94.20;;;;;;4316280;33;43963;-83
2022/03/06 10:07:02;;;;;;;;;;;5.70;94.00;;;;;;4314811;33;44358;-83
2022/03/06 10:09:33;;;;;;;;;;;5.70;94.20;;;;;;4316089;33;42996;-83
2022/03/06 10:12:00;;;;;;;;;;;5.70;94.20;;;;;;4327193;33;43172;-83
2022/03/06 10:14:35;;;;;;;;;;;5.80;94.20;;;;;;4314717;33;42127;-83
2022/03/06 10:17:09;;;;;;;;;;;5.80;94.20;;;;;;4315490;33;43384;-83
2022/03/06 10:20:12;;;;;;;;;;;5.80;94.20;;;;;;4315854;33;43025;-83
2022/03/06 10:22:40;;;;;;;;;;;5.80;94.40;;;;;;4272477;33;42897;-83
2022/03/06 10:25:08;;;;;;;;;;;5.80;94.40;;;;;;4308727;33;43941;-83
2022/03/06 10:27:48;;;;;;;;;;;5.80;94.40;;;;;;4317375;33;42248;-83
2022/03/06 10:30:24;;;;;;;;;;;5.80;94.60;;;;;;4318922;33;43848;-83
2022/03/06 10:32:51;;;;;;;;;;;5.80;94.60;;;;;;4317987;33;43850;-83
2022/03/06 10:35:35;;;;;;;;;;;5.90;94.70;;;;;;4318599;33;42930;-83
2022/03/06 10:38:28;;;;;;;;;;;5.90;94.70;;;;;;4318880;33;43851;-83
2022/03/06 10:40:57;;;;;;;;;;;5.90;94.80;;;;;;4317257;33;42505;-83
2022/03/06 10:43:28;;;;;;;;;;;5.90;94.90;;;;;;4318585;33;43693;-83
2022/03/06 10:46:09;;;;;;;;;;;6.00;94.90;;;;;;4329972;33;43777;-83
2022/03/06 10:48:36;;;;;;;;;;;6.00;94.90;;;;;;4318800;33;43037;-83
2022/03/06 10:51:09;;;;;;;;;;;6.00;94.80;;;;;;4318232;33;43849;-82
2022/03/06 10:53:36;;;;;;;;;;;6.00;94.80;;;;;;4318301;33;42888;-82
2022/03/06 10:56:11;;;;;;;;;;;6.00;94.80;;;;;;4318075;33;44234;-82
2022/03/06 10:58:40;;;;;;;;;;;6.10;94.80;;;;;;4318312;33;43667;-82
2022/03/06 11:01:26;;;;;;;;;;;6.00;94.70;;;;;;4318349;33;43723;-83
2022/03/06 11:03:53;;;;;;;;;;;6.10;94.70;;;;;;4318053;33;42929;-82
2022/03/06 11:06:21;;;;;;;;;;;6.10;94.70;;;;;;4317194;33;42639;-82
2022/03/06 11:08:49;;;;;;;;;;;6.10;94.70;;;;;;4317319;33;44007;-82
2022/03/06 11:11:19;;;;;;;;;;;6.20;94.60;;;;;;4317408;33;43847;-82
2022/03/06 11:13:47;;;;;;;;;;;6.20;94.60;;;;;;4317763;33;43932;-82
2022/03/06 11:16:14;;;;;;;;;;;6.20;94.50;;;;;;4318237;33;43010;-82
2022/03/06 11:18:42;;;;;;;;;;;6.20;94.00;;;;;;4316976;33;42513;-82
2022/03/06 11:21:09;;;;;;;;;;;6.20;93.90;;;;;;4317981;33;42985;-82
2022/03/06 11:23:39;;;;;;;;;;;6.30;93.90;;;;;;4316647;33;43159;-82
2022/03/06 11:26:09;;;;;;;;;;;6.30;93.90;;;;;;4317602;33;42838;-82
2022/03/06 11:28:51;;;;;;;;;;;6.30;93.90;;;;;;4317034;33;43796;-82
2022/03/06 11:31:18;;;;;;;;;;;6.30;93.60;;;;;;4317626;33;42744;-82
2022/03/06 11:33:56;;;;;;;;;;;6.30;93.50;;;;;;4316437;33;42850;-82
2022/03/06 11:36:26;;;;;;;;;;;6.40;93.50;;;;;;4316752;33;43334;-82
2022/03/06 11:38:54;;;;;;;;;;;6.40;93.80;;;;;;4318016;33;43958;-82
2022/03/06 11:41:23;;;;;;;;;;;6.40;93.20;;;;;;4316519;33;43474;-82
2022/03/06 11:43:51;;;;;;;;;;;6.40;92.90;;;;;;4316371;33;42675;-82
2022/03/06 11:46:25;;;;;;;;;;;6.50;93.00;;;;;;4317519;33;43281;-82
2022/03/06 11:48:55;;;;;;;;;;;6.50;93.20;;;;;;4316912;33;42869;-82
2022/03/06 11:51:26;;;;;;;;;;;6.50;92.80;;;;;;4318165;33;20017;-82
2022/03/06 11:54:05;;;;;;;;;;;6.50;92.40;;;;;;4316384;33;43008;-82
2022/03/06 11:56:33;;;;;;;;;;;6.60;92.30;;;;;;4328579;33;43731;-82
2022/03/06 11:59:05;;;;;;;;;;;6.60;92.00;;;;;;4316252;33;44242;-82
2022/03/06 12:01:36;;;;;;;;;;;6.60;92.10;;;;;;4317437;33;43704;-82
2022/03/06 12:04:10;;;;;;;;;;;6.60;92.20;;;;;;4317615;33;44250;-82
2022/03/06 12:06:44;;;;;;;;;;;6.70;92.20;;;;;;4317584;33;43478;-82
2022/03/06 12:09:18;;;;;;;;;;;6.70;91.60;;;;;;4316395;33;42034;-82
2022/03/06 12:11:48;;;;;;;;;;;6.70;91.90;;;;;;4317392;33;42831;-82
2022/03/06 12:14:19;;;;;;;;;;;6.70;92.00;;;;;;4316454;33;43076;-82
2022/03/06 12:17:12;;;;;;;;;;;6.80;92.00;;;;;;4315815;33;43653;-82
2022/03/06 12:19:42;;;;;;;;;;;6.80;91.80;;;;;;4314322;33;44051;-82
2022/03/06 12:22:14;;;;;;;;;;;6.80;91.90;;;;;;4317182;33;20006;-82
2022/03/06 12:24:42;;;;;;;;;;;6.90;91.60;;;;;;4317320;33;45579;-82
2022/03/06 12:27:10;;;;;;;;;;;6.90;91.70;;;;;;4317271;33;43591;-82
2022/03/06 12:29:47;;;;;;;;;;;6.90;91.80;;;;;;4316921;33;43359;-82
2022/03/06 12:32:29;;;;;;;;;;;6.90;91.80;;;;;;4317257;33;43705;-82
2022/03/06 12:35:04;;;;;;;;;;;7.00;91.80;;;;;;4316648;33;44240;-82
2022/03/06 12:37:31;;;;;;;;;;;7.00;91.50;;;;;;4316134;33;43194;-82
2022/03/06 12:39:59;;;;;;;;;;;7.00;91.30;;;;;;4315643;33;44227;-82
2022/03/06 12:42:28;;;;;;;;;;;7.10;91.60;;;;;;4317086;33;44761;-82
2022/03/06 12:44:59;;;;;;;;;;;7.10;91.80;;;;;;4316613;33;43664;-82
2022/03/06 12:47:31;;;;;;;;;;;7.10;91.40;;;;;;4317125;33;42857;-82
2022/03/06 12:49:59;;;;;;;;;;;7.10;91.30;;;;;;4315454;33;44219;-81
2022/03/06 12:52:28;;;;;;;;;;;7.20;91.00;;;;;;4317311;33;20006;-83
2022/03/06 12:55:03;;;;;;;;;;;7.20;90.70;;;;;;4315657;33;42474;-82
2022/03/06 12:57:40;;;;;;;;;;;7.20;91.00;;;;;;4316728;33;44074;-83
2022/03/06 13:00:09;;;;;;;;;;;7.30;90.80;;;;;;4316038;33;44040;-82
2022/03/06 13:02:36;;;;;;;;;;;7.30;90.80;;;;;;4316455;33;44351;-82
2022/03/06 13:05:05;;;;;;;;;;;7.30;91.00;;;;;;4316213;33;42481;-82
2022/03/06 13:07:36;;;;;;;;;;;7.40;90.80;;;;;;4315162;33;43663;-82
2022/03/06 13:10:04;;;;;;;;;;;7.40;90.80;;;;;;4315601;33;43966;-82
2022/03/06 13:12:36;;;;;;;;;;;7.40;90.60;;;;;;4316247;33;43715;-82
2022/03/06 13:15:16;;;;;;;;;;;7.40;90.60;;;;;;4315123;33;44205;-82
2022/03/06 13:17:44;;;;;;;;;;;7.50;90.50;;;;;;4327835;33;45720;-82
2022/03/06 13:20:13;;;;;;;;;;;7.50;90.60;;;;;;4316076;33;43018;-83
2022/03/06 13:22:40;;;;;;;;;;;7.50;90.30;;;;;;4317178;33;20391;-82
2022/03/06 13:25:08;;;;;;;;;;;7.50;90.00;;;;;;4316148;33;43628;-82
2022/03/06 13:27:37;;;;;;;;;;;7.60;90.10;;;;;;4315239;33;43377;-82
2022/03/06 13:30:07;;;;;;;;;;;7.60;90.40;;;;;;4315391;33;43764;-83
2022/03/06 13:32:36;;;;;;;;;;;7.60;90.30;;;;;;4315441;33;43282;-83
2022/03/06 13:35:04;;;;;;;;;;;7.60;90.60;;;;;;4315902;33;42483;-83
2022/03/06 13:37:32;;;;;;;;;;;7.70;90.20;;;;;;4314883;33;43858;-83
2022/03/06 13:39:59;;;;;;;;;;;7.70;90.40;;;;;;4316249;33;44192;-83
2022/03/06 13:42:33;;;;;;;;;;;7.70;90.60;;;;;;4316239;33;44996;-83
2022/03/06 13:45:02;;;;;;;;;;;7.70;90.40;;;;;;4315883;33;44279;-83
2022/03/06 13:47:45;;;;;;;;;;;7.80;90.40;;;;;;4316068;33;42583;-83
2022/03/06 13:50:26;;;;;;;;;;;7.80;90.50;;;;;;4315106;33;43379;-83
2022/03/06 13:52:53;;;;;;;;;;;7.80;90.50;;;;;;4316131;33;20009;-83
2022/03/06 13:55:21;;;;;;;;;;;7.80;90.70;;;;;;4315779;33;44959;-84
2022/03/06 13:58:05;;;;;;;;;;;7.80;90.70;;;;;;4326650;33;43865;-83
2022/03/06 14:00:44;;;;;;;;;;;7.90;90.70;;;;;;4314383;33;44304;-83
2022/03/06 14:03:16;;;;;;;;;;;7.80;90.80;;;;;;4314362;33;43748;-83
2022/03/06 14:05:48;;;;;;;;;;;7.90;90.80;;;;;;4315075;33;43333;-83
2022/03/06 14:08:18;;;;;;;;;;;7.90;90.50;;;;;;4314692;33;43458;-83
2022/03/06 14:10:51;;;;;;;;;;;7.90;90.60;;;;;;4315798;33;44576;-83
2022/03/06 14:13:37;;;;;;;;;;;7.90;90.60;;;;;;4315542;33;42645;-83
2022/03/06 14:16:05;;;;;;;;;;;7.90;90.60;;;;;;4327248;33;43078;-83
2022/03/06 14:18:32;;;;;;;;;;;7.90;90.50;;;;;;4315662;33;43004;-83
2022/03/06 14:21:04;;;;;;;;;;;7.90;90.50;;;;;;4314620;33;43025;-83
2022/03/06 14:23:31;;;;;;;;;;;7.90;90.50;;;;;;4314497;33;42264;-83
2022/03/06 14:25:59;;;;;;;;;;;7.90;90.60;;;;;;4315811;33;43814;-83
2022/03/06 14:28:26;;;;;;;;;;;8.00;90.60;;;;;;4314697;33;44105;-83
2022/03/06 14:30:53;;;;;;;;;;;8.00;90.30;;;;;;4315376;33;44267;-84
2022/03/06 14:33:20;;;;;;;;;;;8.00;90.40;;;;;;4314412;33;43425;-84
2022/03/06 14:35:47;;;;;;;;;;;8.00;90.50;;;;;;4315796;33;43350;-84
2022/03/06 14:38:14;;;;;;;;;;;8.10;90.40;;;;;;4314354;33;42316;-84
2022/03/06 14:40:41;;;;;;;;;;;8.10;90.70;;;;;;4315635;33;42148;-83